sensor_id;sensor_type;location;lat;lon;timestamp;temperature;humidity
66271;DHT22;53063;39.614;8.814;2022-12-20T00:01:59;10.90;99.90
66271;DHT22;53063;39.614;8.814;2022-12-20T00:04:25;10.80;99.90
66271;DHT22;53063;39.614;8.814;2022-12-20T00:06:51;10.80;99.90
66271;DHT22;53063;39.614;8.814;2022-12-20T00:09:17;10.80;99.90
66271;DHT22;53063;39.614;8.814;2022-12-20T00:11:43;10.80;99.90
66271;DHT22;53063;39.614;8.814;2022-12-20T00:14:09;10.80;99.90
66271;DHT22;53063;39.614;8.814;2022-12-20T00:16:35;10.70;99.90
66271;DHT22;53063;39.614;8.814;2022-12-20T00:19:03;10.70;99.90
66271;DHT22;53063;39.614;8.814;2022-12-20T00:21:30;10.70;99.90
66271;DHT22;53063;39.614;8.814;2022-12-20T00:23:56;10.70;99.90
66271;DHT22;53063;39.614;8.814;2022-12-20T00:26:25;10.60;99.90
66271;DHT22;53063;39.614;8.814;2022-12-20T00:28:52;10.50;99.90
66271;DHT22;53063;39.614;8.814;2022-12-20T00:31:20;10.60;99.90
66271;DHT22;53063;39.614;8.814;2022-12-20T00:33:48;10.50;99.90
66271;DHT22;53063;39.614;8.814;2022-12-20T00:36:15;10.50;99.90
66271;DHT22;53063;39.614;8.814;2022-12-20T00:38:50;10.50;99.90
66271;DHT22;53063;39.614;8.814;2022-12-20T00:41:22;10.50;99.90
66271;DHT22;53063;39.614;8.814;2022-12-20T00:43:50;10.40;99.90
66271;DHT22;53063;39.614;8.814;2022-12-20T00:46:17;10.40;99.90
66271;DHT22;53063;39.614;8.814;2022-12-20T00:48:43;10.40;99.90
66271;DHT22;53063;39.614;8.814;2022-12-20T00:51:12;10.30;99.90
66271;DHT22;53063;39.614;8.814;2022-12-20T00:53:38;10.20;99.90
66271;DHT22;53063;39.614;8.814;2022-12-20T00:56:05;9.60;99.90
66271;DHT22;53063;39.614;8.814;2022-12-20T00:58:38;9.20;99.90
66271;DHT22;53063;39.614;8.814;2022-12-20T01:01:12;9.00;99.90
66271;DHT22;53063;39.614;8.814;2022-12-20T01:03:39;8.90;99.90
66271;DHT22;53063;39.614;8.814;2022-12-20T01:06:05;8.80;99.90
66271;DHT22;53063;39.614;8.814;2022-12-20T01:08:31;8.70;99.90
66271;DHT22;53063;39.614;8.814;2022-12-20T01:13:36;8.80;99.90
66271;DHT22;53063;39.614;8.814;2022-12-20T01:16:07;8.80;99.90
66271;DHT22;53063;39.614;8.814;2022-12-20T01:18:33;8.80;99.90
66271;DHT22;53063;39.614;8.814;2022-12-20T01:21:04;8.80;99.90
66271;DHT22;53063;39.614;8.814;2022-12-20T01:23:31;8.80;99.90
66271;DHT22;53063;39.614;8.814;2022-12-20T01:25:58;8.90;99.90
66271;DHT22;53063;39.614;8.814;2022-12-20T01:28:24;8.90;99.90
66271;DHT22;53063;39.614;8.814;2022-12-20T01:30:50;8.90;99.90
66271;DHT22;53063;39.614;8.814;2022-12-20T01:33:16;8.80;99.90
66271;DHT22;53063;39.614;8.814;2022-12-20T01:35:53;9.30;99.90
66271;DHT22;53063;39.614;8.814;2022-12-20T01:38:19;9.60;99.90
66271;DHT22;53063;39.614;8.814;2022-12-20T01:40:45;9.70;99.90
66271;DHT22;53063;39.614;8.814;2022-12-20T01:43:14;9.80;99.90
66271;DHT22;53063;39.614;8.814;2022-12-20T01:45:40;9.80;99.90
66271;DHT22;53063;39.614;8.814;2022-12-20T01:48:06;9.80;99.90
66271;DHT22;53063;39.614;8.814;2022-12-20T01:50:33;9.30;99.90
66271;DHT22;53063;39.614;8.814;2022-12-20T01:52:59;8.90;99.90
66271;DHT22;53063;39.614;8.814;2022-12-20T01:55:29;8.80;99.90
66271;DHT22;53063;39.614;8.814;2022-12-20T01:58:05;8.80;99.90
66271;DHT22;53063;39.614;8.814;2022-12-20T02:00:31;8.70;99.90
66271;DHT22;53063;39.614;8.814;2022-12-20T02:02:59;8.80;99.90
66271;DHT22;53063;39.614;8.814;2022-12-20T02:05:26;8.70;99.90
66271;DHT22;53063;39.614;8.814;2022-12-20T02:07:54;8.90;99.90
66271;DHT22;53063;39.614;8.814;2022-12-20T02:10:23;8.80;99.90
66271;DHT22;53063;39.614;8.814;2022-12-20T02:12:57;8.80;99.90
66271;DHT22;53063;39.614;8.814;2022-12-20T02:15:55;8.90;99.90
66271;DHT22;53063;39.614;8.814;2022-12-20T02:18:33;9.10;99.90
66271;DHT22;53063;39.614;8.814;2022-12-20T02:34:32;8.80;99.90
66271;DHT22;53063;39.614;8.814;2022-12-20T02:36:59;8.50;99.90
66271;DHT22;53063;39.614;8.814;2022-12-20T02:39:28;8.50;99.90
66271;DHT22;53063;39.614;8.814;2022-12-20T02:41:57;8.50;99.90
66271;DHT22;53063;39.614;8.814;2022-12-20T02:44:27;8.40;99.90
66271;DHT22;53063;39.614;8.814;2022-12-20T02:47:19;8.40;99.90
66271;DHT22;53063;39.614;8.814;2022-12-20T02:49:46;8.40;99.90
66271;DHT22;53063;39.614;8.814;2022-12-20T02:52:14;8.60;99.90
66271;DHT22;53063;39.614;8.814;2022-12-20T02:54:40;8.60;99.90
66271;DHT22;53063;39.614;8.814;2022-12-20T02:57:14;8.40;99.90
66271;DHT22;53063;39.614;8.814;2022-12-20T03:02:18;8.30;99.90
66271;DHT22;53063;39.614;8.814;2022-12-20T03:04:45;8.30;99.90
66271;DHT22;53063;39.614;8.814;2022-12-20T03:07:13;8.00;99.90
66271;DHT22;53063;39.614;8.814;2022-12-20T03:09:42;8.00;99.90
66271;DHT22;53063;39.614;8.814;2022-12-20T03:12:09;7.90;99.90
66271;DHT22;53063;39.614;8.814;2022-12-20T03:14:37;8.00;99.90
66271;DHT22;53063;39.614;8.814;2022-12-20T03:17:06;8.20;99.90
66271;DHT22;53063;39.614;8.814;2022-12-20T03:19:33;8.20;99.90
66271;DHT22;53063;39.614;8.814;2022-12-20T03:21:59;8.30;99.90
66271;DHT22;53063;39.614;8.814;2022-12-20T03:24:25;8.40;99.90
66271;DHT22;53063;39.614;8.814;2022-12-20T03:26:52;8.40;99.90
66271;DHT22;53063;39.614;8.814;2022-12-20T03:29:20;8.60;99.90
66271;DHT22;53063;39.614;8.814;2022-12-20T03:31:47;8.70;99.90
66271;DHT22;53063;39.614;8.814;2022-12-20T03:34:13;8.70;99.90
66271;DHT22;53063;39.614;8.814;2022-12-20T03:36:40;8.80;99.90
66271;DHT22;53063;39.614;8.814;2022-12-20T03:39:06;8.70;99.90
66271;DHT22;53063;39.614;8.814;2022-12-20T03:41:36;8.80;99.90
66271;DHT22;53063;39.614;8.814;2022-12-20T03:44:02;8.80;99.90
66271;DHT22;53063;39.614;8.814;2022-12-20T03:46:29;8.80;99.90
66271;DHT22;53063;39.614;8.814;2022-12-20T03:48:55;8.70;99.90
66271;DHT22;53063;39.614;8.814;2022-12-20T03:51:21;8.70;99.90
66271;DHT22;53063;39.614;8.814;2022-12-20T03:53:47;8.60;99.90
66271;DHT22;53063;39.614;8.814;2022-12-20T03:56:14;8.60;99.90
66271;DHT22;53063;39.614;8.814;2022-12-20T03:58:43;8.40;99.90
66271;DHT22;53063;39.614;8.814;2022-12-20T04:01:24;8.40;99.90
66271;DHT22;53063;39.614;8.814;2022-12-20T04:03:51;8.30;99.90
66271;DHT22;53063;39.614;8.814;2022-12-20T04:06:18;8.60;99.90
66271;DHT22;53063;39.614;8.814;2022-12-20T04:08:44;9.00;99.90
66271;DHT22;53063;39.614;8.814;2022-12-20T04:11:15;9.30;99.90
66271;DHT22;53063;39.614;8.814;2022-12-20T04:13:50;9.40;99.90
66271;DHT22;53063;39.614;8.814;2022-12-20T04:16:25;9.60;99.90
66271;DHT22;53063;39.614;8.814;2022-12-20T04:18:53;9.60;99.90
66271;DHT22;53063;39.614;8.814;2022-12-20T04:21:24;9.70;99.90
66271;DHT22;53063;39.614;8.814;2022-12-20T04:23:53;9.80;99.90
66271;DHT22;53063;39.614;8.814;2022-12-20T04:26:20;9.80;99.90
66271;DHT22;53063;39.614;8.814;2022-12-20T04:28:46;9.80;99.90
66271;DHT22;53063;39.614;8.814;2022-12-20T04:31:12;9.70;99.90
66271;DHT22;53063;39.614;8.814;2022-12-20T04:33:38;9.70;99.90
66271;DHT22;53063;39.614;8.814;2022-12-20T04:36:05;9.80;99.90
66271;DHT22;53063;39.614;8.814;2022-12-20T04:38:33;9.70;99.90
66271;DHT22;53063;39.614;8.814;2022-12-20T04:40:59;9.40;99.90
66271;DHT22;53063;39.614;8.814;2022-12-20T04:43:29;8.60;99.90
66271;DHT22;53063;39.614;8.814;2022-12-20T04:45:58;8.30;99.90
66271;DHT22;53063;39.614;8.814;2022-12-20T04:48:26;8.20;99.90
66271;DHT22;53063;39.614;8.814;2022-12-20T04:50:55;8.00;99.90
66271;DHT22;53063;39.614;8.814;2022-12-20T04:53:22;7.90;99.90
66271;DHT22;53063;39.614;8.814;2022-12-20T04:56:08;7.80;99.90
66271;DHT22;53063;39.614;8.814;2022-12-20T04:58:35;7.80;99.90
66271;DHT22;53063;39.614;8.814;2022-12-20T05:01:04;7.70;99.90
66271;DHT22;53063;39.614;8.814;2022-12-20T05:03:38;7.60;99.90
66271;DHT22;53063;39.614;8.814;2022-12-20T05:06:05;7.60;99.90
66271;DHT22;53063;39.614;8.814;2022-12-20T05:08:32;7.60;99.90
66271;DHT22;53063;39.614;8.814;2022-12-20T05:11:00;7.40;99.90
66271;DHT22;53063;39.614;8.814;2022-12-20T05:13:26;7.20;99.90
66271;DHT22;53063;39.614;8.814;2022-12-20T05:15:53;7.00;99.90
66271;DHT22;53063;39.614;8.814;2022-12-20T05:18:24;6.90;99.90
66271;DHT22;53063;39.614;8.814;2022-12-20T05:20:59;6.80;99.90
66271;DHT22;53063;39.614;8.814;2022-12-20T05:23:46;6.80;99.90
66271;DHT22;53063;39.614;8.814;2022-12-20T05:26:39;6.80;99.90
66271;DHT22;53063;39.614;8.814;2022-12-20T05:29:06;6.60;99.90
66271;DHT22;53063;39.614;8.814;2022-12-20T05:31:33;6.50;99.90
66271;DHT22;53063;39.614;8.814;2022-12-20T05:33:59;6.60;99.90
66271;DHT22;53063;39.614;8.814;2022-12-20T05:36:29;6.60;99.90
66271;DHT22;53063;39.614;8.814;2022-12-20T05:38:57;6.60;99.90
66271;DHT22;53063;39.614;8.814;2022-12-20T05:41:23;6.70;99.90
66271;DHT22;53063;39.614;8.814;2022-12-20T05:43:51;6.70;99.90
66271;DHT22;53063;39.614;8.814;2022-12-20T05:46:17;6.60;99.90
66271;DHT22;53063;39.614;8.814;2022-12-20T05:48:52;6.70;99.90
66271;DHT22;53063;39.614;8.814;2022-12-20T05:51:18;6.70;99.90
66271;DHT22;53063;39.614;8.814;2022-12-20T05:53:53;6.90;99.90
66271;DHT22;53063;39.614;8.814;2022-12-20T05:56:27;6.80;99.90
66271;DHT22;53063;39.614;8.814;2022-12-20T05:58:53;7.00;99.90
66271;DHT22;53063;39.614;8.814;2022-12-20T06:01:19;6.80;99.90
66271;DHT22;53063;39.614;8.814;2022-12-20T06:03:45;6.90;99.90
66271;DHT22;53063;39.614;8.814;2022-12-20T06:06:14;6.90;99.90
66271;DHT22;53063;39.614;8.814;2022-12-20T06:08:41;7.10;99.90
66271;DHT22;53063;39.614;8.814;2022-12-20T06:11:12;7.10;99.90
66271;DHT22;53063;39.614;8.814;2022-12-20T06:13:47;7.20;99.90
66271;DHT22;53063;39.614;8.814;2022-12-20T06:16:14;7.20;99.90
66271;DHT22;53063;39.614;8.814;2022-12-20T06:18:40;7.00;99.90
66271;DHT22;53063;39.614;8.814;2022-12-20T06:21:07;6.90;99.90
66271;DHT22;53063;39.614;8.814;2022-12-20T06:23:33;7.30;99.90
66271;DHT22;53063;39.614;8.814;2022-12-20T06:26:08;7.50;99.90
66271;DHT22;53063;39.614;8.814;2022-12-20T06:28:38;7.70;99.90
66271;DHT22;53063;39.614;8.814;2022-12-20T06:31:09;7.60;99.90
66271;DHT22;53063;39.614;8.814;2022-12-20T06:33:45;7.60;99.90
66271;DHT22;53063;39.614;8.814;2022-12-20T06:36:14;7.70;99.90
66271;DHT22;53063;39.614;8.814;2022-12-20T06:38:41;7.70;99.90
66271;DHT22;53063;39.614;8.814;2022-12-20T06:41:07;7.80;99.90
66271;DHT22;53063;39.614;8.814;2022-12-20T06:43:33;7.80;99.90
66271;DHT22;53063;39.614;8.814;2022-12-20T06:45:59;7.80;99.90
66271;DHT22;53063;39.614;8.814;2022-12-20T06:48:25;7.90;99.90
66271;DHT22;53063;39.614;8.814;2022-12-20T06:50:51;7.90;99.90
66271;DHT22;53063;39.614;8.814;2022-12-20T06:53:18;8.00;99.90
66271;DHT22;53063;39.614;8.814;2022-12-20T06:55:46;8.10;99.90
66271;DHT22;53063;39.614;8.814;2022-12-20T06:58:16;8.00;99.90
66271;DHT22;53063;39.614;8.814;2022-12-20T07:00:46;7.90;99.90
66271;DHT22;53063;39.614;8.814;2022-12-20T07:03:12;7.90;99.90
66271;DHT22;53063;39.614;8.814;2022-12-20T07:05:39;7.90;99.90
66271;DHT22;53063;39.614;8.814;2022-12-20T07:08:05;7.80;99.90
66271;DHT22;53063;39.614;8.814;2022-12-20T07:10:34;7.60;99.90
66271;DHT22;53063;39.614;8.814;2022-12-20T07:13:00;7.50;99.90
66271;DHT22;53063;39.614;8.814;2022-12-20T07:15:26;7.70;99.90
66271;DHT22;53063;39.614;8.814;2022-12-20T07:17:51;7.90;99.90
66271;DHT22;53063;39.614;8.814;2022-12-20T07:20:18;8.00;99.90
66271;DHT22;53063;39.614;8.814;2022-12-20T07:22:46;8.10;99.90
66271;DHT22;53063;39.614;8.814;2022-12-20T07:25:13;8.30;99.90
66271;DHT22;53063;39.614;8.814;2022-12-20T07:27:38;8.70;99.90
66271;DHT22;53063;39.614;8.814;2022-12-20T07:30:05;9.30;99.90
66271;DHT22;53063;39.614;8.814;2022-12-20T07:32:31;9.80;99.90
66271;DHT22;53063;39.614;8.814;2022-12-20T07:34:57;10.10;99.90
66271;DHT22;53063;39.614;8.814;2022-12-20T07:37:23;10.30;99.90
66271;DHT22;53063;39.614;8.814;2022-12-20T07:39:49;10.60;99.90
66271;DHT22;53063;39.614;8.814;2022-12-20T07:42:15;10.60;99.90
66271;DHT22;53063;39.614;8.814;2022-12-20T07:44:42;10.60;99.90
66271;DHT22;53063;39.614;8.814;2022-12-20T07:47:08;10.60;99.90
66271;DHT22;53063;39.614;8.814;2022-12-20T07:49:35;10.80;99.90
66271;DHT22;53063;39.614;8.814;2022-12-20T07:52:02;11.60;99.90
66271;DHT22;53063;39.614;8.814;2022-12-20T07:54:52;13.70;99.90
66271;DHT22;53063;39.614;8.814;2022-12-20T07:57:23;15.40;99.00
66271;DHT22;53063;39.614;8.814;2022-12-20T07:59:53;16.00;88.20
66271;DHT22;53063;39.614;8.814;2022-12-20T08:02:26;16.40;85.30
66271;DHT22;53063;39.614;8.814;2022-12-20T08:04:53;16.60;83.20
66271;DHT22;53063;39.614;8.814;2022-12-20T08:07:20;17.80;82.00
66271;DHT22;53063;39.614;8.814;2022-12-20T08:09:46;18.30;76.20
66271;DHT22;53063;39.614;8.814;2022-12-20T08:12:15;18.90;75.40
66271;DHT22;53063;39.614;8.814;2022-12-20T08:14:41;19.30;72.20
66271;DHT22;53063;39.614;8.814;2022-12-20T08:17:07;19.10;71.40
66271;DHT22;53063;39.614;8.814;2022-12-20T08:19:33;19.40;69.80
66271;DHT22;53063;39.614;8.814;2022-12-20T08:21:59;19.20;69.70
66271;DHT22;53063;39.614;8.814;2022-12-20T08:24:25;19.30;67.60
66271;DHT22;53063;39.614;8.814;2022-12-20T08:26:51;19.20;68.90
66271;DHT22;53063;39.614;8.814;2022-12-20T08:29:17;18.50;70.50
66271;DHT22;53063;39.614;8.814;2022-12-20T08:31:42;19.30;68.30
66271;DHT22;53063;39.614;8.814;2022-12-20T08:34:09;20.10;66.20
66271;DHT22;53063;39.614;8.814;2022-12-20T08:36:35;20.40;67.90
66271;DHT22;53063;39.614;8.814;2022-12-20T08:39:02;20.50;64.50
66271;DHT22;53063;39.614;8.814;2022-12-20T08:41:28;20.00;64.90
66271;DHT22;53063;39.614;8.814;2022-12-20T08:43:54;20.80;65.00
66271;DHT22;53063;39.614;8.814;2022-12-20T08:46:20;19.50;64.40
66271;DHT22;53063;39.614;8.814;2022-12-20T08:48:46;18.60;67.30
66271;DHT22;53063;39.614;8.814;2022-12-20T08:51:12;16.70;74.10
66271;DHT22;53063;39.614;8.814;2022-12-20T08:53:38;16.20;76.80
66271;DHT22;53063;39.614;8.814;2022-12-20T08:58:33;16.50;75.60
66271;DHT22;53063;39.614;8.814;2022-12-20T09:01:00;16.70;80.00
66271;DHT22;53063;39.614;8.814;2022-12-20T09:03:29;20.30;66.00
66271;DHT22;53063;39.614;8.814;2022-12-20T09:05:56;19.80;64.40
66271;DHT22;53063;39.614;8.814;2022-12-20T09:08:23;20.80;60.60
66271;DHT22;53063;39.614;8.814;2022-12-20T09:10:49;21.10;61.20
66271;DHT22;53063;39.614;8.814;2022-12-20T09:13:15;21.70;56.80
66271;DHT22;53063;39.614;8.814;2022-12-20T09:15:40;21.20;58.00
66271;DHT22;53063;39.614;8.814;2022-12-20T09:18:07;21.50;57.20
66271;DHT22;53063;39.614;8.814;2022-12-20T09:20:33;21.80;54.60
66271;DHT22;53063;39.614;8.814;2022-12-20T09:22:59;21.30;57.60
66271;DHT22;53063;39.614;8.814;2022-12-20T09:25:26;22.10;54.20
66271;DHT22;53063;39.614;8.814;2022-12-20T09:27:53;21.80;54.90
66271;DHT22;53063;39.614;8.814;2022-12-20T09:30:22;21.90;54.30
66271;DHT22;53063;39.614;8.814;2022-12-20T09:32:48;22.40;53.40
66271;DHT22;53063;39.614;8.814;2022-12-20T09:35:14;22.50;52.40
66271;DHT22;53063;39.614;8.814;2022-12-20T09:37:40;22.60;52.30
66271;DHT22;53063;39.614;8.814;2022-12-20T09:40:16;22.60;52.10
66271;DHT22;53063;39.614;8.814;2022-12-20T09:42:43;23.00;51.20
66271;DHT22;53063;39.614;8.814;2022-12-20T09:45:24;23.20;50.10
66271;DHT22;53063;39.614;8.814;2022-12-20T09:47:51;22.70;52.30
66271;DHT22;53063;39.614;8.814;2022-12-20T09:50:19;22.10;52.30
66271;DHT22;53063;39.614;8.814;2022-12-20T09:52:56;23.20;51.00
66271;DHT22;53063;39.614;8.814;2022-12-20T09:55:46;23.10;50.60
66271;DHT22;53063;39.614;8.814;2022-12-20T09:58:38;23.40;51.20
66271;DHT22;53063;39.614;8.814;2022-12-20T10:01:27;24.90;47.70
66271;DHT22;53063;39.614;8.814;2022-12-20T10:03:55;23.00;50.00
66271;DHT22;53063;39.614;8.814;2022-12-20T10:09:20;24.10;48.20
66271;DHT22;53063;39.614;8.814;2022-12-20T10:17:02;23.10;51.30
66271;DHT22;53063;39.614;8.814;2022-12-20T10:22:13;22.90;51.60
66271;DHT22;53063;39.614;8.814;2022-12-20T10:24:58;23.10;51.40
66271;DHT22;53063;39.614;8.814;2022-12-20T10:27:26;23.00;52.60
66271;DHT22;53063;39.614;8.814;2022-12-20T10:29:52;21.80;55.00
66271;DHT22;53063;39.614;8.814;2022-12-20T10:32:22;22.10;54.10
66271;DHT22;53063;39.614;8.814;2022-12-20T10:35:10;23.20;52.10
66271;DHT22;53063;39.614;8.814;2022-12-20T10:38:07;22.90;54.20
66271;DHT22;53063;39.614;8.814;2022-12-20T10:40:46;23.60;51.60
66271;DHT22;53063;39.614;8.814;2022-12-20T10:43:20;23.30;51.90
66271;DHT22;53063;39.614;8.814;2022-12-20T10:46:15;23.70;51.50
66271;DHT22;53063;39.614;8.814;2022-12-20T10:48:43;23.50;51.50
66271;DHT22;53063;39.614;8.814;2022-12-20T10:53:36;23.00;52.60
66271;DHT22;53063;39.614;8.814;2022-12-20T10:56:17;22.40;53.60
66271;DHT22;53063;39.614;8.814;2022-12-20T10:58:55;22.90;52.80
66271;DHT22;53063;39.614;8.814;2022-12-20T11:01:25;21.80;55.70
66271;DHT22;53063;39.614;8.814;2022-12-20T11:04:02;21.90;56.20
66271;DHT22;53063;39.614;8.814;2022-12-20T11:06:41;21.60;56.00
66271;DHT22;53063;39.614;8.814;2022-12-20T11:14:34;21.50;56.30
66271;DHT22;53063;39.614;8.814;2022-12-20T11:17:24;20.90;57.40
66271;DHT22;53063;39.614;8.814;2022-12-20T11:19:55;20.80;58.60
66271;DHT22;53063;39.614;8.814;2022-12-20T11:30:39;18.50;69.70
66271;DHT22;53063;39.614;8.814;2022-12-20T11:36:46;18.10;71.70
66271;DHT22;53063;39.614;8.814;2022-12-20T11:39:31;17.70;72.30
66271;DHT22;53063;39.614;8.814;2022-12-20T11:52:53;18.10;72.30
66271;DHT22;53063;39.614;8.814;2022-12-20T11:55:51;17.50;74.10
66271;DHT22;53063;39.614;8.814;2022-12-20T11:58:24;17.50;74.70
66271;DHT22;53063;39.614;8.814;2022-12-20T12:01:09;17.70;74.40
66271;DHT22;53063;39.614;8.814;2022-12-20T12:03:40;17.50;75.10
66271;DHT22;53063;39.614;8.814;2022-12-20T12:06:19;17.00;76.90
66271;DHT22;53063;39.614;8.814;2022-12-20T12:08:55;17.20;76.10
66271;DHT22;53063;39.614;8.814;2022-12-20T12:11:24;17.30;77.50
66271;DHT22;53063;39.614;8.814;2022-12-20T12:13:52;17.40;76.80
66271;DHT22;53063;39.614;8.814;2022-12-20T12:16:23;17.30;77.10
66271;DHT22;53063;39.614;8.814;2022-12-20T12:18:50;17.30;76.60
66271;DHT22;53063;39.614;8.814;2022-12-20T12:21:23;17.00;78.70
66271;DHT22;53063;39.614;8.814;2022-12-20T12:24:01;17.30;78.60
66271;DHT22;53063;39.614;8.814;2022-12-20T12:29:19;17.20;78.30
66271;DHT22;53063;39.614;8.814;2022-12-20T12:45:26;17.70;74.90
66271;DHT22;53063;39.614;8.814;2022-12-20T12:50:49;17.70;75.30
66271;DHT22;53063;39.614;8.814;2022-12-20T12:53:35;17.50;76.80
66271;DHT22;53063;39.614;8.814;2022-12-20T13:06:55;18.00;73.90
66271;DHT22;53063;39.614;8.814;2022-12-20T13:11:52;18.10;72.90
66271;DHT22;53063;39.614;8.814;2022-12-20T13:16:50;18.10;72.90
66271;DHT22;53063;39.614;8.814;2022-12-20T13:21:47;18.40;71.90
66271;DHT22;53063;39.614;8.814;2022-12-20T13:27:36;18.00;72.30
66271;DHT22;53063;39.614;8.814;2022-12-20T13:38:04;17.90;72.80
66271;DHT22;53063;39.614;8.814;2022-12-20T13:40:35;17.80;73.90
66271;DHT22;53063;39.614;8.814;2022-12-20T13:43:06;18.20;72.50
66271;DHT22;53063;39.614;8.814;2022-12-20T13:45:37;18.30;72.70
66271;DHT22;53063;39.614;8.814;2022-12-20T13:48:05;18.80;72.10
66271;DHT22;53063;39.614;8.814;2022-12-20T13:50:38;19.30;68.20
66271;DHT22;53063;39.614;8.814;2022-12-20T13:53:06;20.30;63.00
66271;DHT22;53063;39.614;8.814;2022-12-20T13:55:40;19.30;63.70
66271;DHT22;53063;39.614;8.814;2022-12-20T13:58:24;20.60;61.10
66271;DHT22;53063;39.614;8.814;2022-12-20T14:00:52;21.10;59.90
66271;DHT22;53063;39.614;8.814;2022-12-20T14:03:22;22.00;57.60
66271;DHT22;53063;39.614;8.814;2022-12-20T14:05:57;21.90;57.60
66271;DHT22;53063;39.614;8.814;2022-12-20T14:08:26;20.80;60.30
66271;DHT22;53063;39.614;8.814;2022-12-20T14:10:53;21.20;59.30
66271;DHT22;53063;39.614;8.814;2022-12-20T14:13:23;20.70;59.80
66271;DHT22;53063;39.614;8.814;2022-12-20T14:15:51;21.10;58.00
66271;DHT22;53063;39.614;8.814;2022-12-20T14:18:23;21.00;59.10
66271;DHT22;53063;39.614;8.814;2022-12-20T14:21:00;21.10;59.70
66271;DHT22;53063;39.614;8.814;2022-12-20T14:23:38;21.40;57.40
66271;DHT22;53063;39.614;8.814;2022-12-20T14:26:06;20.90;58.80
66271;DHT22;53063;39.614;8.814;2022-12-20T14:28:42;20.10;61.70
66271;DHT22;53063;39.614;8.814;2022-12-20T14:33:49;16.90;73.80
66271;DHT22;53063;39.614;8.814;2022-12-20T14:36:17;16.70;76.70
66271;DHT22;53063;39.614;8.814;2022-12-20T14:38:48;16.60;77.70
66271;DHT22;53063;39.614;8.814;2022-12-20T14:41:34;16.30;79.00
66271;DHT22;53063;39.614;8.814;2022-12-20T14:46:33;16.10;82.50
66271;DHT22;53063;39.614;8.814;2022-12-20T14:51:41;16.00;83.10
66271;DHT22;53063;39.614;8.814;2022-12-20T14:54:21;16.00;83.90
66271;DHT22;53063;39.614;8.814;2022-12-20T14:56:49;15.80;84.50
66271;DHT22;53063;39.614;8.814;2022-12-20T14:59:22;15.70;85.00
66271;DHT22;53063;39.614;8.814;2022-12-20T15:01:50;15.70;86.00
66271;DHT22;53063;39.614;8.814;2022-12-20T15:04:30;15.80;86.80
66271;DHT22;53063;39.614;8.814;2022-12-20T15:06:57;15.80;87.00
66271;DHT22;53063;39.614;8.814;2022-12-20T15:09:23;15.60;86.50
66271;DHT22;53063;39.614;8.814;2022-12-20T15:11:49;15.60;86.70
66271;DHT22;53063;39.614;8.814;2022-12-20T15:16:52;15.50;88.00
66271;DHT22;53063;39.614;8.814;2022-12-20T15:19:18;15.40;89.20
66271;DHT22;53063;39.614;8.814;2022-12-20T15:21:45;15.40;90.00
66271;DHT22;53063;39.614;8.814;2022-12-20T15:24:16;15.30;91.10
66271;DHT22;53063;39.614;8.814;2022-12-20T15:26:44;15.30;91.90
66271;DHT22;53063;39.614;8.814;2022-12-20T15:29:22;15.30;92.70
66271;DHT22;53063;39.614;8.814;2022-12-20T15:31:49;15.20;93.40
66271;DHT22;53063;39.614;8.814;2022-12-20T15:34:35;15.10;94.30
66271;DHT22;53063;39.614;8.814;2022-12-20T15:37:01;15.10;95.30
66271;DHT22;53063;39.614;8.814;2022-12-20T15:39:29;15.00;95.80
66271;DHT22;53063;39.614;8.814;2022-12-20T15:41:58;15.00;96.50
66271;DHT22;53063;39.614;8.814;2022-12-20T15:44:26;15.00;97.00
66271;DHT22;53063;39.614;8.814;2022-12-20T15:46:53;14.90;98.20
66271;DHT22;53063;39.614;8.814;2022-12-20T15:49:23;14.80;98.90
66271;DHT22;53063;39.614;8.814;2022-12-20T15:51:51;14.70;99.80
66271;DHT22;53063;39.614;8.814;2022-12-20T15:54:36;14.60;99.90
66271;DHT22;53063;39.614;8.814;2022-12-20T15:57:04;14.50;99.90
66271;DHT22;53063;39.614;8.814;2022-12-20T15:59:32;14.40;99.90
66271;DHT22;53063;39.614;8.814;2022-12-20T16:01:58;14.30;99.90
66271;DHT22;53063;39.614;8.814;2022-12-20T16:04:25;14.10;99.90
66271;DHT22;53063;39.614;8.814;2022-12-20T16:06:53;14.00;99.90
66271;DHT22;53063;39.614;8.814;2022-12-20T16:09:20;13.90;99.90
66271;DHT22;53063;39.614;8.814;2022-12-20T16:11:46;13.80;99.90
66271;DHT22;53063;39.614;8.814;2022-12-20T16:14:18;13.80;99.90
66271;DHT22;53063;39.614;8.814;2022-12-20T16:16:45;13.90;99.90
66271;DHT22;53063;39.614;8.814;2022-12-20T16:19:13;13.80;99.90
66271;DHT22;53063;39.614;8.814;2022-12-20T16:21:47;13.70;99.90
66271;DHT22;53063;39.614;8.814;2022-12-20T16:24:17;13.70;99.90
66271;DHT22;53063;39.614;8.814;2022-12-20T16:26:43;13.60;99.90
66271;DHT22;53063;39.614;8.814;2022-12-20T16:29:09;13.60;99.90
66271;DHT22;53063;39.614;8.814;2022-12-20T16:31:37;13.60;99.90
66271;DHT22;53063;39.614;8.814;2022-12-20T16:34:14;13.60;99.90
66271;DHT22;53063;39.614;8.814;2022-12-20T16:36:41;13.60;99.90
66271;DHT22;53063;39.614;8.814;2022-12-20T16:39:07;13.50;99.90
66271;DHT22;53063;39.614;8.814;2022-12-20T16:41:38;13.50;99.90
66271;DHT22;53063;39.614;8.814;2022-12-20T16:44:05;13.40;99.90
66271;DHT22;53063;39.614;8.814;2022-12-20T16:46:36;13.50;99.90
66271;DHT22;53063;39.614;8.814;2022-12-20T16:49:02;13.50;99.90
66271;DHT22;53063;39.614;8.814;2022-12-20T16:51:38;13.50;99.90
66271;DHT22;53063;39.614;8.814;2022-12-20T16:54:10;13.40;99.90
66271;DHT22;53063;39.614;8.814;2022-12-20T16:56:37;13.40;99.90
66271;DHT22;53063;39.614;8.814;2022-12-20T16:59:03;13.30;99.90
66271;DHT22;53063;39.614;8.814;2022-12-20T17:01:33;13.30;99.90
66271;DHT22;53063;39.614;8.814;2022-12-20T17:04:00;13.20;99.90
66271;DHT22;53063;39.614;8.814;2022-12-20T17:06:26;13.20;99.90
66271;DHT22;53063;39.614;8.814;2022-12-20T17:08:53;13.20;99.90
66271;DHT22;53063;39.614;8.814;2022-12-20T17:13:48;13.10;99.90
66271;DHT22;53063;39.614;8.814;2022-12-20T17:16:15;13.10;99.90
66271;DHT22;53063;39.614;8.814;2022-12-20T17:18:42;13.00;99.90
66271;DHT22;53063;39.614;8.814;2022-12-20T17:21:42;13.00;99.90
66271;DHT22;53063;39.614;8.814;2022-12-20T17:24:21;12.90;99.90
66271;DHT22;53063;39.614;8.814;2022-12-20T17:26:48;12.90;99.90
66271;DHT22;53063;39.614;8.814;2022-12-20T17:29:14;12.90;99.90
66271;DHT22;53063;39.614;8.814;2022-12-20T17:31:42;12.90;99.90
66271;DHT22;53063;39.614;8.814;2022-12-20T17:34:22;12.80;99.90
66271;DHT22;53063;39.614;8.814;2022-12-20T17:36:50;12.80;99.90
66271;DHT22;53063;39.614;8.814;2022-12-20T17:39:17;12.70;99.90
66271;DHT22;53063;39.614;8.814;2022-12-20T17:41:43;12.70;99.90
66271;DHT22;53063;39.614;8.814;2022-12-20T17:44:27;12.70;99.90
66271;DHT22;53063;39.614;8.814;2022-12-20T17:46:55;12.70;99.90
66271;DHT22;53063;39.614;8.814;2022-12-20T17:49:22;12.60;99.90
66271;DHT22;53063;39.614;8.814;2022-12-20T17:51:48;12.70;99.90
66271;DHT22;53063;39.614;8.814;2022-12-20T17:54:21;12.60;99.90
66271;DHT22;53063;39.614;8.814;2022-12-20T17:56:47;12.60;99.90
66271;DHT22;53063;39.614;8.814;2022-12-20T17:59:14;12.60;99.90